Time;durP1;ratioP1;P1;durP2;ratioP2;P2;SDS_P1;SDS_P2;PMS_P1;PMS_P2;Temp;Humidity;BMP_temperature;BMP_pressure;BME280_temperature;BME280_humidity;BME280_pressure;Samples;Min_cycle;Max_cycle;Signal;HPM_P1;HPM_P2
2021/07/05 00:13:25;;;;;;;20.10;11.65;;;;;;;19.51;100.00;99854.63;717996;1176;113665;-78
2021/07/05 00:28:27;;;;;;;13.63;8.37;;;;;;;19.39;100.00;99849.10;733443;1175;114231;-79
2021/07/05 00:43:30;;;;;;;11.25;7.15;;;;;;;19.44;100.00;99862.61;716038;1187;115157;-78
2021/07/05 00:58:32;;;;;;;10.55;7.30;;;;;;;19.23;100.00;99866.27;715256;1199;115512;-79
2021/07/05 01:13:35;;;;;;;17.23;8.35;;;;;;;19.42;100.00;99872.62;715771;1200;113847;-79
2021/07/05 01:28:37;;;;;;;13.18;8.70;;;;;;;19.47;100.00;99868.56;715200;1200;115571;-81
2021/07/05 01:43:39;;;;;;;14.35;8.93;;;;;;;19.44;100.00;99854.63;714636;1199;113787;-77
2021/07/05 01:58:41;;;;;;;14.53;8.95;;;;;;;19.29;100.00;99849.52;714437;1183;115380;-80
2021/07/05 02:13:44;;;;;;;10.70;8.90;;;;;;;19.16;100.00;99844.16;714978;1189;113829;-80
2021/07/05 02:28:46;;;;;;;20.52;10.53;;;;;;;19.16;100.00;99846.00;714556;1199;115890;-78
2021/07/05 02:43:49;;;;;;;16.23;9.75;;;;;;;19.00;100.00;99844.55;714063;1181;113967;-80
2021/07/05 02:58:52;;;;;;;16.65;10.20;;;;;;;18.94;100.00;99852.30;715517;1175;113697;-79
2021/07/05 03:13:54;;;;;;;13.70;8.80;;;;;;;18.77;100.00;99858.98;715255;1176;114526;-80
2021/07/05 03:28:56;;;;;;;17.48;10.85;;;;;;;18.78;100.00;99858.77;715667;1175;113796;-79
2021/07/05 03:43:58;;;;;;;18.10;10.23;;;;;;;18.78;100.00;99858.77;714952;1174;115536;-79
2021/07/05 03:59:00;;;;;;;11.98;8.23;;;;;;;18.84;100.00;99866.97;715598;1199;115082;-79
2021/07/05 04:14:02;;;;;;;18.43;10.53;;;;;;;19.00;100.00;99885.23;716163;1177;114491;-78
2021/07/05 04:29:04;;;;;;;14.25;9.55;;;;;;;19.15;100.00;99873.61;715787;1198;113851;-79
2021/07/05 04:44:07;;;;;;;13.75;8.68;;;;;;;19.50;100.00;99868.14;715741;1198;114250;-79
2021/07/05 04:59:14;;;;;;;13.23;8.37;;;;;;;20.01;100.00;99862.20;714998;1202;114057;-75
2021/07/05 05:14:18;;;;;;;14.45;9.85;;;;;;;20.61;100.00;99853.20;717267;1167;114860;-79
2021/07/05 05:29:20;;;;;;;8.83;7.23;;;;;;;21.37;100.00;99848.89;731478;1198;113553;-77
2021/07/05 05:44:22;;;;;;;10.10;7.73;;;;;;;22.31;100.00;99834.66;714520;1200;114191;-80
2021/07/05 05:59:24;;;;;;;9.17;7.40;;;;;;;23.02;100.00;99843.03;713916;1200;114722;-82
2021/07/05 06:14:26;;;;;;;10.38;6.80;;;;;;;23.32;100.00;99844.05;715317;1199;114561;-84
2021/07/05 06:29:29;;;;;;;9.90;6.70;;;;;;;23.57;100.00;99852.70;715666;1200;114649;-84
2021/07/05 06:44:32;;;;;;;8.73;6.75;;;;;;;23.33;100.00;99841.14;715466;1200;113787;-84
2021/07/05 06:59:34;;;;;;;8.75;7.48;;;;;;;23.63;100.00;99842.92;715767;1201;114320;-81
2021/07/05 07:14:37;;;;;;;9.48;7.35;;;;;;;23.99;100.00;99840.27;714828;1202;113661;-81
2021/07/05 07:29:40;;;;;;;10.43;7.05;;;;;;;23.28;100.00;99846.39;715081;1199;114004;-77
2021/07/05 07:44:42;;;;;;;10.75;7.18;;;;;;;23.84;100.00;99836.16;714279;1199;113919;-77
2021/07/05 07:59:45;;;;;;;10.90;6.80;;;;;;;24.45;100.00;99835.84;714341;1199;114992;-77
2021/07/05 08:14:48;;;;;;;10.03;6.70;;;;;;;25.40;100.00;99825.53;714405;1205;114188;-76
2021/07/05 08:29:50;;;;;;;8.80;6.60;;;;;;;25.01;100.00;99822.70;714283;1176;113921;-79
2021/07/05 08:44:53;;;;;;;7.13;5.60;;;;;;;26.17;100.00;99833.88;714050;1202;113904;-75
2021/07/05 08:59:55;;;;;;;9.20;6.25;;;;;;;26.39;100.00;99812.37;714181;1199;115165;-75
2021/07/05 09:15:12;;;;;;;6.77;6.07;;;;;;;27.69;100.00;99815.13;714035;1199;113888;-76
2021/07/05 09:30:21;;;;;;;5.87;5.10;;;;;;;27.44;100.00;99802.31;714692;1203;114467;-76
2021/07/05 09:45:23;;;;;;;4.90;3.85;;;;;;;27.31;100.00;99808.92;714875;1199;114030;-76
2021/07/05 10:00:27;;;;;;;5.73;3.63;;;;;;;27.04;100.00;99795.52;713904;1199;114019;-76
2021/07/05 10:15:32;;;;;;;4.48;3.78;;;;;;;27.42;97.39;99790.18;714271;1203;113677;-76
2021/07/05 10:30:35;;;;;;;4.53;3.93;;;;;;;28.10;97.12;99793.00;714614;1200;114262;-79
2021/07/05 10:45:49;;;;;;;4.23;3.83;;;;;;;28.03;93.91;99787.84;714611;1199;114907;-77
2021/07/05 11:00:57;;;;;;;2.88;2.63;;;;;;;28.91;91.43;99793.45;714375;1199;113755;-76
2021/07/05 11:16:00;;;;;;;3.78;3.03;;;;;;;27.98;89.57;99785.09;714214;1197;114138;-76
2021/07/05 11:31:20;;;;;;;5.38;4.45;;;;;;;28.68;89.82;99781.31;714510;1200;113924;-76
2021/07/05 11:46:25;;;;;;;6.35;4.10;;;;;;;29.58;84.48;99787.23;714690;1200;113652;-78
2021/07/05 12:01:29;;;;;;;4.38;3.30;;;;;;;29.33;85.62;99770.78;714336;1200;114070;-79
2021/07/05 12:16:32;;;;;;;3.60;3.20;;;;;;;30.50;80.87;99761.70;714181;1202;115212;-78
2021/07/05 12:31:35;;;;;;;4.05;3.20;;;;;;;29.62;80.14;99745.86;714325;1199;114034;-79
2021/07/05 12:46:38;;;;;;;4.43;3.10;;;;;;;30.53;76.77;99728.69;714732;1199;114436;-79
2021/07/05 13:01:41;;;;;;;7.00;3.40;;;;;;;30.48;73.40;99717.90;714410;1199;114304;-78
2021/07/05 13:16:44;;;;;;;4.57;3.03;;;;;;;31.57;72.50;99718.52;714045;1203;112945;-73
2021/07/05 13:31:48;;;;;;;3.33;2.70;;;;;;;31.65;69.07;99717.10;714317;1199;113666;-77
2021/07/05 13:47:14;;;;;;;4.70;3.40;;;;;;;31.95;70.37;99713.19;714329;1199;113947;-77
2021/07/05 17:38:55;;;;;;;10.75;7.00;;;;;;;28.35;77.25;99753.71;715395;1177;23959;-84
2021/07/05 17:53:58;;;;;;;7.90;5.97;;;;;;;27.92;77.28;99751.11;714586;1200;113158;-83
2021/07/05 18:09:00;;;;;;;10.58;7.95;;;;;;;27.70;77.79;99764.75;714728;1189;113351;-83
2021/07/05 18:24:04;;;;;;;12.50;8.77;;;;;;;27.16;79.14;99777.33;715075;1202;114088;-83
2021/07/05 18:39:07;;;;;;;7.80;6.60;;;;;;;26.70;82.30;99782.29;716306;1202;113477;-83
2021/07/05 18:54:09;;;;;;;17.63;8.63;;;;;;;25.75;83.87;99812.88;715776;1203;113133;-83
2021/07/05 19:09:12;;;;;;;12.70;8.93;;;;;;;25.04;84.72;99814.16;715031;1200;113495;-82
2021/07/05 19:24:15;;;;;;;22.63;13.23;;;;;;;24.55;86.14;99833.38;714748;1177;114508;-83
2021/07/05 19:39:18;;;;;;;18.20;11.08;;;;;;;24.36;87.40;99856.03;714512;1176;113494;-81
2021/07/05 19:54:21;;;;;;;13.88;11.65;;;;;;;23.97;89.46;99888.72;714537;1200;114864;-82
2021/07/05 20:09:23;;;;;;;22.85;12.68;;;;;;;23.58;90.38;99907.88;714792;1200;114469;-82
2021/07/05 20:24:25;;;;;;;14.83;11.43;;;;;;;23.45;91.90;99918.77;714916;1199;113812;-81
2021/07/05 20:39:28;;;;;;;13.03;9.30;;;;;;;23.20;94.33;99917.09;718966;1177;114272;-82
2021/07/05 20:54:31;;;;;;;11.18;9.53;;;;;;;23.06;95.67;99915.61;714979;1199;114419;-82
2021/07/05 21:09:33;;;;;;;12.95;9.30;;;;;;;22.88;96.50;99932.50;714522;1177;113630;-81
2021/07/05 21:24:36;;;;;;;13.30;9.63;;;;;;;22.94;97.63;99928.93;714387;1200;113564;-81
2021/07/05 21:39:38;;;;;;;12.18;10.53;;;;;;;22.28;99.26;99936.64;714081;1199;114207;-80
2021/07/05 21:54:41;;;;;;;14.40;10.35;;;;;;;22.06;100.00;99925.55;713956;1178;113979;-80
2021/07/05 22:09:43;;;;;;;11.68;9.80;;;;;;;21.89;100.00;99920.75;713766;1178;113857;-80
2021/07/05 22:24:45;;;;;;;12.67;9.33;;;;;;;21.94;100.00;99930.78;713850;1180;113715;-80
2021/07/05 22:39:48;;;;;;;13.55;9.55;;;;;;;21.75;100.00;99944.08;713849;1199;115390;-79
2021/07/05 22:54:50;;;;;;;10.18;9.08;;;;;;;21.40;100.00;99947.15;713981;1199;114806;-80
2021/07/05 23:09:52;;;;;;;10.45;9.28;;;;;;;21.20;100.00;99939.27;722759;1199;114299;-80
2021/07/05 23:24:54;;;;;;;10.28;8.88;;;;;;;21.11;100.00;99936.05;713813;1200;114260;-80
2021/07/05 23:39:57;;;;;;;11.88;10.30;;;;;;;20.84;100.00;99958.50;713824;1199;113951;-81
2021/07/05 23:54:59;;;;;;;11.03;9.80;;;;;;;20.36;100.00;99968.44;714067;1203;113858;-82
